Barnstable, MA (02630)

4:01 PM EDT on April 25, 2017 (GMT -0400)
Airport Way | | Change Station

Elev 46 ft 41.68 °N, 70.28 °W | Updated 2 seconds ago

Light Rain
Light Rain Mist
52.8 °F
Feels Like 52.8 °F
N
2.6
Wind Variable Wind from NNE
Gusts 19.0 mph

Today
High -- | Low -- °F
--% Chance of Precip.
Yesterday
High -- | Low -- °F
Precip. -- in
Pressure 30.12 in
Visibility 2.0 miles
Clouds Overcast 500 ft
Dew Point 53 °F
Humidity 99%
Rainfall 0.48 in
Snow Depth Not available.
5:45 AM 7:33 PM
Waning Crescent, 1% visible
METAR KHYA 251956Z 10015G25KT 080V140 2SM -RA BR OVC005 11/11 A3011 RMK AO2 PK WND 07034/1927 SLP197 P0032 T01110106
Pressure 30.12 in
Visibility 2.0 miles
Clouds Overcast 500 ft
Dew Point 53 °F
Humidity 99%
Rainfall 0.48 in
Snow Depth Not available.
5:45 AM 7:33 PM
Waning Crescent, 1% visible
METAR KHYA 251956Z 10015G25KT 080V140 2SM -RA BR OVC005 11/11 A3011 RMK AO2 PK WND 07034/1927 SLP197 P0032 T01110106

Get Severe Weather Alerts

Thanks for signing up!

Be on the lookout for a verification email in your inbox.

You'll start receiving the daily forecast at 8 AM.

×

10-Day Weather Forecast

Almanac

Astronomy

Apr. 25, 2017 Rise Set
Actual Time
Civil Twilight
Nautical Twilight
Astronomical Twilight
Moon
Length of Visible Light
Length of Day
Tomorrow will be .
, % of the Moon is Illuminated

Today's Extremes

State Highs State Lows

Community

WunderPhotos

WunderBlog® & News

Nearby

Air Quality

  Air Quality AQ Index Pollutant
Not available.

Snow Depth

Station Depth Elevation

Earthquake Activity

City Distance Mag. Time & Date
Minimum magnitude displayed is 2.5.

Coastal Water Temperatures

Place Temperature

Stations

Nearby Weather Stations

Station Location Temp. Windchill Dew Point Humidity Wind Precip. Elev Updated Type
                   

Watches & Warnings

There are currently no watches in effect.